createdAt,value
2022-08-04T00:01:35.946Z,19.46
2022-08-04T00:04:14.870Z,19.51
2022-08-04T00:07:00.991Z,19.47
2022-08-04T00:09:40.225Z,19.43
2022-08-04T00:12:12.565Z,19.40
2022-08-04T00:14:50.579Z,19.41
2022-08-04T00:17:26.929Z,19.39
2022-08-04T00:20:02.210Z,19.33
2022-08-04T00:22:33.318Z,19.30
2022-08-04T00:25:05.559Z,19.26
2022-08-04T00:27:36.306Z,19.20
2022-08-04T00:30:07.065Z,19.10
2022-08-04T00:32:37.994Z,19.09
2022-08-04T00:35:09.745Z,19.06
2022-08-04T00:37:40.049Z,19.03
2022-08-04T00:40:25.711Z,18.99
2022-08-04T00:43:13.995Z,18.98
2022-08-04T00:46:25.270Z,18.97
2022-08-04T00:49:25.197Z,18.92
2022-08-04T00:52:32.599Z,18.88
2022-08-04T00:55:11.009Z,18.83
2022-08-04T00:58:04.491Z,18.84
2022-08-04T01:00:50.051Z,18.89
2022-08-04T01:03:48.853Z,18.85
2022-08-04T01:06:36.563Z,18.79
2022-08-04T01:09:37.131Z,18.75
2022-08-04T01:12:43.097Z,18.69
2022-08-04T01:15:22.762Z,18.57
2022-08-04T01:18:06.454Z,18.48
2022-08-04T01:20:43.430Z,18.46
2022-08-04T01:23:59.416Z,18.43
2022-08-04T01:26:57.717Z,18.42
2022-08-04T01:29:46.462Z,18.41
2022-08-04T01:32:26.544Z,18.40
2022-08-04T01:35:04.939Z,18.40
2022-08-04T01:37:50.633Z,18.36
2022-08-04T01:40:22.375Z,18.30
2022-08-04T01:42:54.913Z,18.35
2022-08-04T01:45:26.587Z,18.32
2022-08-04T01:47:57.519Z,18.29
2022-08-04T01:50:28.371Z,18.31
2022-08-04T01:52:57.503Z,18.31
2022-08-04T01:55:51.888Z,18.30
2022-08-04T01:58:21.013Z,18.27
2022-08-04T02:01:02.453Z,18.27
2022-08-04T02:04:19.996Z,18.22
2022-08-04T02:06:41.861Z,18.27
2022-08-04T02:09:24.707Z,18.28
2022-08-04T02:12:25.935Z,18.29
2022-08-04T02:15:04.232Z,18.27
2022-08-04T02:17:47.431Z,18.28
2022-08-04T02:20:24.624Z,18.27
2022-08-04T02:23:00.659Z,18.28
2022-08-04T02:25:35.312Z,18.27
2022-08-04T02:28:22.703Z,18.26
2022-08-04T02:31:09.369Z,18.23
2022-08-04T02:33:43.187Z,18.20
2022-08-04T02:36:24.808Z,18.21
2022-08-04T02:39:01.559Z,18.22
2022-08-04T02:41:33.156Z,18.18
2022-08-04T02:44:04.548Z,18.14
2022-08-04T02:46:37.465Z,18.13
2022-08-04T02:49:10.339Z,18.13
2022-08-04T02:51:43.405Z,18.11
2022-08-04T02:54:12.671Z,18.07
2022-08-04T02:56:45.820Z,18.02
2022-08-04T02:59:24.416Z,17.98
2022-08-04T03:01:58.417Z,17.96
2022-08-04T03:04:52.278Z,17.89
2022-08-04T03:08:07.140Z,17.87
2022-08-04T03:11:24.826Z,17.86
2022-08-04T03:14:37.150Z,17.87
2022-08-04T03:18:01.128Z,17.91
2022-08-04T03:21:31.430Z,17.88
2022-08-04T03:25:01.464Z,17.83
2022-08-04T03:28:20.220Z,17.83
2022-08-04T03:31:16.935Z,17.84
2022-08-04T03:34:04.483Z,17.85
2022-08-04T03:37:18.236Z,17.84
2022-08-04T03:40:38.846Z,17.91
2022-08-04T03:43:57.851Z,17.89
2022-08-04T03:47:13.405Z,17.97
2022-08-04T03:50:10.043Z,18.02
2022-08-04T03:53:26.765Z,18.06
2022-08-04T03:56:52.591Z,18.09
2022-08-04T03:59:48.889Z,18.13
2022-08-04T04:03:00.652Z,18.13
2022-08-04T04:06:18.991Z,18.15
2022-08-04T04:09:52.375Z,18.15
2022-08-04T04:13:17.077Z,18.20
2022-08-04T04:16:08.357Z,18.23
2022-08-04T04:19:14.464Z,18.26
2022-08-04T04:22:24.291Z,18.30
2022-08-04T04:25:13.280Z,18.29
2022-08-04T04:28:43.688Z,18.34
2022-08-04T04:31:10.149Z,18.38
2022-08-04T04:33:59.592Z,18.44
2022-08-04T04:36:50.655Z,18.53
2022-08-04T04:39:33.561Z,18.58
2022-08-04T04:42:43.696Z,18.64
2022-08-04T04:45:25.922Z,18.66
2022-08-04T04:48:10.960Z,18.73
2022-08-04T04:51:02.402Z,18.87
2022-08-04T04:53:46.244Z,18.92
2022-08-04T04:56:24.225Z,19.01
2022-08-04T04:58:57.777Z,19.15
2022-08-04T05:02:18.874Z,19.23
2022-08-04T05:05:31.811Z,19.46
2022-08-04T05:09:03.745Z,19.63
2022-08-04T05:14:33.076Z,19.78
2022-08-04T05:15:11.304Z,19.84
2022-08-04T05:17:44.892Z,19.96
2022-08-04T05:20:20.242Z,20.06
2022-08-04T05:22:56.017Z,20.14
2022-08-04T05:25:29.393Z,20.24
2022-08-04T05:28:07.727Z,20.42
2022-08-04T05:30:48.718Z,20.51
2022-08-04T05:33:28.935Z,20.55
2022-08-04T05:36:20.426Z,20.52
2022-08-04T05:38:55.861Z,20.46
2022-08-04T05:41:32.186Z,20.46
2022-08-04T05:44:16.148Z,20.54
2022-08-04T05:46:54.082Z,20.60
2022-08-04T05:49:26.356Z,20.60
2022-08-04T05:51:58.596Z,20.65
2022-08-04T05:54:29.408Z,20.77
2022-08-04T05:56:59.867Z,20.84
2022-08-04T05:59:33.078Z,20.95
2022-08-04T06:02:06.068Z,21.02
2022-08-04T06:04:40.464Z,21.21
2022-08-04T06:07:11.244Z,21.27
2022-08-04T06:09:41.074Z,21.34
2022-08-04T06:12:15.727Z,21.34
2022-08-04T06:14:48.335Z,21.44
2022-08-04T06:19:57.631Z,21.63
2022-08-04T06:20:24.826Z,21.82
2022-08-04T06:22:59.956Z,22.01
2022-08-04T06:25:35.549Z,22.16
2022-08-04T06:28:08.986Z,22.25
2022-08-04T06:30:39.279Z,22.41
2022-08-04T06:33:24.490Z,22.66
2022-08-04T06:35:56.187Z,22.90
2022-08-04T06:38:27.358Z,22.97
2022-08-04T06:40:58.277Z,23.02
2022-08-04T06:43:29.680Z,23.18
2022-08-04T06:46:04.140Z,23.27
2022-08-04T06:48:34.883Z,23.56
2022-08-04T06:51:31.390Z,23.56
2022-08-04T06:53:53.777Z,23.57
2022-08-04T06:56:25.153Z,23.68
2022-08-04T06:58:56.051Z,23.86
2022-08-04T07:01:28.063Z,23.99
2022-08-04T07:03:58.710Z,24.16
2022-08-04T07:06:28.377Z,24.44
2022-08-04T07:08:57.497Z,24.63
2022-08-04T07:11:28.493Z,25.14
2022-08-04T07:14:08.865Z,25.47
2022-08-04T07:16:38.573Z,25.54
2022-08-04T07:19:10.164Z,25.71
2022-08-04T07:21:40.924Z,26.29
2022-08-04T07:24:33.050Z,26.50
2022-08-04T07:27:02.672Z,26.37
2022-08-04T07:29:32.415Z,26.44
2022-08-04T07:32:02.475Z,26.18
2022-08-04T07:34:33.875Z,26.07
2022-08-04T07:37:04.272Z,26.44
2022-08-04T07:39:48.082Z,27.20
2022-08-04T07:42:21.441Z,27.75
2022-08-04T07:44:50.423Z,28.52
2022-08-04T07:47:24.937Z,29.04
2022-08-04T07:50:15.367Z,29.52
2022-08-04T07:52:58.548Z,30.04
2022-08-04T07:55:35.158Z,30.33
2022-08-04T07:58:03.809Z,31.03
2022-08-04T08:00:33.345Z,30.84
2022-08-04T08:03:04.795Z,30.88
2022-08-04T08:05:34.958Z,31.53
2022-08-04T08:08:23.757Z,31.22
2022-08-04T08:10:53.877Z,31.41
2022-08-04T08:13:23.116Z,31.02
2022-08-04T08:15:54.373Z,30.11
2022-08-04T08:18:23.132Z,29.56
2022-08-04T08:20:53.789Z,29.64
2022-08-04T08:23:23.249Z,30.11
2022-08-04T08:25:54.069Z,30.03
2022-08-04T08:28:22.963Z,29.49
2022-08-04T08:30:52.982Z,29.93
2022-08-04T08:33:23.718Z,30.52
2022-08-04T08:36:02.752Z,31.43
2022-08-04T08:38:45.810Z,31.73
2022-08-04T08:42:03.515Z,31.38
2022-08-04T08:45:29.369Z,31.82
2022-08-04T08:48:34.505Z,31.97
2022-08-04T08:51:36.665Z,32.07
2022-08-04T08:54:52.865Z,32.02
2022-08-04T08:57:59.849Z,31.51
2022-08-04T09:00:43.188Z,31.14
2022-08-04T09:04:04.773Z,31.83
2022-08-04T09:07:14.840Z,32.17
2022-08-04T09:10:11.791Z,32.10
2022-08-04T09:12:50.574Z,32.38
2022-08-04T09:15:34.318Z,32.92
2022-08-04T09:18:10.760Z,33.57
2022-08-04T09:20:49.159Z,33.89
2022-08-04T09:23:29.420Z,33.83
2022-08-04T09:26:07.096Z,33.02
2022-08-04T09:28:54.499Z,33.26
2022-08-04T09:31:51.709Z,33.75
2022-08-04T09:34:39.191Z,33.12
2022-08-04T09:37:25.753Z,33.35
2022-08-04T09:40:08.811Z,33.81
2022-08-04T09:43:00.728Z,33.55
2022-08-04T09:45:43.305Z,33.51
2022-08-04T09:48:22.309Z,33.10
2022-08-04T09:51:00.075Z,33.73
2022-08-04T09:53:50.282Z,34.39
2022-08-04T09:56:31.690Z,33.51
2022-08-04T09:59:19.344Z,33.66
2022-08-04T10:02:00.105Z,33.78
2022-08-04T10:04:34.019Z,33.40
2022-08-04T10:07:41.606Z,33.92
2022-08-04T10:10:35.062Z,34.45
2022-08-04T10:13:40.795Z,34.61
2022-08-04T10:16:36.693Z,35.08
2022-08-04T10:19:21.701Z,34.17
2022-08-04T10:22:29.304Z,34.13
2022-08-04T10:25:38.147Z,34.39
2022-08-04T10:28:13.571Z,33.38
2022-08-04T10:30:53.069Z,34.28
2022-08-04T10:33:28.952Z,34.35
2022-08-04T10:36:04.357Z,33.97
2022-08-04T10:38:40.806Z,32.67
2022-08-04T10:41:19.730Z,32.09
2022-08-04T10:44:00.262Z,31.49
2022-08-04T10:46:38.478Z,31.70
2022-08-04T10:49:30.005Z,32.46
2022-08-04T10:52:08.778Z,32.25
2022-08-04T10:54:49.091Z,32.45
2022-08-04T10:57:27.180Z,31.81
2022-08-04T11:00:05.013Z,31.71
2022-08-04T11:02:44.137Z,32.41
2022-08-04T11:05:25.660Z,32.66
2022-08-04T11:08:01.738Z,32.87
2022-08-04T11:10:38.484Z,33.32
2022-08-04T11:13:22.070Z,33.06
2022-08-04T11:16:05.245Z,32.91
2022-08-04T11:18:49.241Z,32.52
2022-08-04T11:21:26.169Z,32.79
2022-08-04T11:24:05.087Z,32.43
2022-08-04T11:26:47.007Z,31.97
2022-08-04T11:29:27.616Z,31.92
2022-08-04T11:32:03.711Z,32.10
2022-08-04T11:34:36.708Z,31.74
2022-08-04T11:37:16.872Z,32.53
2022-08-04T11:39:52.535Z,31.67
2022-08-04T11:42:25.073Z,31.77
2022-08-04T11:45:04.542Z,31.06
2022-08-04T11:47:47.787Z,30.39
2022-08-04T11:50:33.521Z,29.91
2022-08-04T11:53:04.373Z,29.86
2022-08-04T11:56:08.003Z,29.28
2022-08-04T11:58:25.229Z,29.22
2022-08-04T12:01:07.356Z,29.40
2022-08-04T12:03:59.655Z,29.26
2022-08-04T12:06:54.028Z,30.31
2022-08-04T12:09:48.219Z,29.52
2022-08-04T12:12:29.545Z,29.19
2022-08-04T12:15:15.282Z,29.05
2022-08-04T12:17:58.289Z,28.99
2022-08-04T12:20:40.406Z,29.04
2022-08-04T12:23:23.611Z,28.89
2022-08-04T12:25:59.925Z,28.75
2022-08-04T12:28:59.581Z,28.71
2022-08-04T12:31:29.970Z,28.81
2022-08-04T12:34:08.437Z,28.85
2022-08-04T12:36:46.398Z,29.30
2022-08-04T12:39:21.189Z,28.58
2022-08-04T12:42:01.726Z,28.55
2022-08-04T12:44:37.892Z,28.80
2022-08-04T12:47:27.317Z,28.57
2022-08-04T12:50:03.847Z,28.63
2022-08-04T12:55:37.250Z,28.79
2022-08-04T12:58:16.497Z,28.73
2022-08-04T13:02:06.777Z,28.82
2022-08-04T13:04:04.091Z,28.91
2022-08-04T13:06:37.113Z,28.88
2022-08-04T13:09:09.694Z,28.75
2022-08-04T13:11:55.244Z,28.83
2022-08-04T13:14:29.525Z,28.75
2022-08-04T13:17:00.349Z,28.63
2022-08-04T13:19:30.824Z,28.72
2022-08-04T13:22:02.915Z,28.75
2022-08-04T13:24:47.148Z,28.77
2022-08-04T13:27:26.336Z,28.83
2022-08-04T13:30:03.852Z,28.88
2022-08-04T13:32:35.588Z,28.84
2022-08-04T13:35:05.971Z,28.90
2022-08-04T13:37:40.286Z,28.86
2022-08-04T13:40:13.990Z,28.92
2022-08-04T13:42:50.353Z,29.06
2022-08-04T13:45:23.374Z,29.10
2022-08-04T13:48:31.693Z,29.03
2022-08-04T13:50:56.063Z,28.99
2022-08-04T13:53:30.732Z,28.96
2022-08-04T13:56:02.503Z,29.04
2022-08-04T13:58:40.772Z,29.24
2022-08-04T14:01:17.902Z,29.22
2022-08-04T14:04:00.507Z,29.07
2022-08-04T14:06:34.810Z,29.19
2022-08-04T14:09:15.796Z,29.10
2022-08-04T14:12:09.922Z,29.08
2022-08-04T14:14:48.727Z,29.09
2022-08-04T14:17:20.782Z,29.22
2022-08-04T14:19:54.526Z,29.21
2022-08-04T14:22:34.189Z,29.16
2022-08-04T14:25:09.407Z,30.41
2022-08-04T14:27:47.630Z,30.87
2022-08-04T14:30:27.955Z,30.20
2022-08-04T14:33:59.689Z,29.60
2022-08-04T14:35:59.495Z,29.88
2022-08-04T14:38:51.514Z,29.91
2022-08-04T14:41:24.167Z,29.19
2022-08-04T14:43:55.904Z,29.01
2022-08-04T14:46:30.299Z,28.96
2022-08-04T14:49:12.002Z,28.99
2022-08-04T14:51:44.838Z,29.01
2022-08-04T14:54:18.872Z,29.00
2022-08-04T14:56:55.537Z,28.96
2022-08-04T14:59:24.969Z,28.94
2022-08-04T15:02:01.000Z,28.93
2022-08-04T15:04:32.347Z,28.90
2022-08-04T15:07:04.579Z,29.13
2022-08-04T15:09:34.699Z,28.97
2022-08-04T15:12:05.934Z,28.92
2022-08-04T15:14:38.204Z,28.91
2022-08-04T15:17:29.332Z,28.90
2022-08-04T15:19:58.645Z,28.82
2022-08-04T15:22:27.796Z,28.83
2022-08-04T15:24:56.748Z,28.84
2022-08-04T15:27:29.501Z,28.83
2022-08-04T15:30:02.995Z,28.79
2022-08-04T15:32:36.860Z,28.78
2022-08-04T15:35:12.697Z,28.83
2022-08-04T15:37:55.813Z,28.90
2022-08-04T15:40:33.303Z,28.90
2022-08-04T15:43:22.600Z,29.04
2022-08-04T15:46:41.754Z,29.01
2022-08-04T15:48:43.594Z,28.87
2022-08-04T15:51:16.878Z,28.75
2022-08-04T15:54:27.913Z,28.81
2022-08-04T15:57:03.459Z,28.77
2022-08-04T16:00:03.296Z,28.92
2022-08-04T16:02:44.093Z,28.91
2022-08-04T16:05:39.363Z,29.05
2022-08-04T16:08:17.587Z,29.23
2022-08-04T16:10:50.933Z,29.31
2022-08-04T16:13:22.924Z,29.33
2022-08-04T16:15:54.925Z,29.45
2022-08-04T16:18:43.936Z,29.67
2022-08-04T16:21:26.571Z,29.74
2022-08-04T16:24:18.261Z,29.88
2022-08-04T16:26:55.171Z,30.13
2022-08-04T16:29:38.558Z,30.71
2022-08-04T16:32:22.790Z,31.35
2022-08-04T16:35:00.120Z,31.38
2022-08-04T16:37:37.732Z,30.88
2022-08-04T16:40:43.560Z,30.08
2022-08-04T16:43:15.315Z,29.50
2022-08-04T16:45:54.047Z,29.10
2022-08-04T16:48:26.952Z,28.75
2022-08-04T16:51:05.874Z,28.59
2022-08-04T16:53:52.782Z,28.46
2022-08-04T16:56:32.942Z,28.19
2022-08-04T16:59:09.463Z,28.09
2022-08-04T17:01:45.758Z,27.84
2022-08-04T17:04:14.659Z,27.55
2022-08-04T17:06:46.963Z,27.45
2022-08-04T17:09:21.675Z,27.32
2022-08-04T17:11:55.068Z,27.41
2022-08-04T17:14:25.598Z,27.23
2022-08-04T17:16:58.737Z,26.93
2022-08-04T17:19:27.684Z,26.74
2022-08-04T17:22:05.782Z,26.50
2022-08-04T17:28:09.511Z,26.04
2022-08-04T17:30:28.505Z,25.92
2022-08-04T17:32:57.386Z,25.71
2022-08-04T17:35:26.049Z,25.58
2022-08-04T17:38:07.503Z,25.44
2022-08-04T17:40:57.550Z,25.33
2022-08-04T17:44:04.960Z,25.18
2022-08-04T17:46:40.945Z,25.00
2022-08-04T17:49:21.951Z,24.95
2022-08-04T17:52:05.579Z,24.85
2022-08-04T17:54:40.215Z,24.77
2022-08-04T17:57:20.470Z,24.67
2022-08-04T17:59:56.751Z,24.58
2022-08-04T18:02:32.195Z,24.45
2022-08-04T18:05:12.321Z,24.35
2022-08-04T18:08:38.029Z,24.25
2022-08-04T18:10:51.648Z,24.15
2022-08-04T18:13:26.903Z,24.02
2022-08-04T18:16:03.513Z,23.94
2022-08-04T18:18:33.007Z,23.83
2022-08-04T18:21:02.893Z,23.77
2022-08-04T18:23:33.688Z,23.68
2022-08-04T18:26:03.760Z,23.62
2022-08-04T18:28:35.449Z,23.56
2022-08-04T18:31:04.322Z,23.45
2022-08-04T18:33:39.847Z,23.39
2022-08-04T18:39:13.266Z,23.24
2022-08-04T18:42:01.520Z,23.14
2022-08-04T18:44:49.405Z,23.02
2022-08-04T18:47:23.427Z,22.92
2022-08-04T18:50:59.524Z,22.86
2022-08-04T18:52:45.220Z,22.75
2022-08-04T18:55:56.998Z,22.68
2022-08-04T18:58:06.268Z,22.57
2022-08-04T19:00:45.535Z,22.56
2022-08-04T19:03:16.267Z,22.53
2022-08-04T19:05:48.626Z,22.43
2022-08-04T19:08:32.823Z,22.34
2022-08-04T19:11:38.193Z,22.27
2022-08-04T19:13:58.496Z,22.20
2022-08-04T19:16:31.533Z,22.16
2022-08-04T19:19:03.628Z,22.11
2022-08-04T19:22:01.589Z,22.06
2022-08-04T19:24:29.223Z,21.98
2022-08-04T19:26:59.525Z,21.92
2022-08-04T19:29:37.390Z,21.89
2022-08-04T19:35:00.780Z,21.77
2022-08-04T19:38:01.003Z,21.72
2022-08-04T19:40:18.155Z,21.65
2022-08-04T19:43:14.386Z,21.61
2022-08-04T19:45:45.766Z,21.56
2022-08-04T19:48:19.488Z,21.51
2022-08-04T19:50:50.100Z,21.44
2022-08-04T19:53:20.123Z,21.37
2022-08-04T19:56:01.932Z,21.33
2022-08-04T19:58:30.623Z,21.26
2022-08-04T20:00:59.689Z,21.23
2022-08-04T20:04:09.696Z,21.18
2022-08-04T20:06:18.385Z,21.10
2022-08-04T20:08:48.893Z,21.11
2022-08-04T20:11:20.627Z,21.10
2022-08-04T20:13:54.846Z,21.07
2022-08-04T20:16:30.468Z,21.01
2022-08-04T20:19:04.540Z,20.95
2022-08-04T20:21:53.823Z,20.88
2022-08-04T20:24:39.385Z,20.81
2022-08-04T20:27:15.122Z,20.76
2022-08-04T20:29:49.480Z,20.74
2022-08-04T20:32:22.278Z,20.69
2022-08-04T20:34:55.158Z,20.67
2022-08-04T20:37:55.135Z,20.63
2022-08-04T20:40:15.612Z,20.51
2022-08-04T20:42:46.251Z,20.50
2022-08-04T20:45:16.217Z,20.51
2022-08-04T20:47:54.034Z,20.52
2022-08-04T20:50:30.255Z,20.47
2022-08-04T20:53:00.007Z,20.41
2022-08-04T20:55:30.014Z,20.31
2022-08-04T20:58:03.061Z,20.32
2022-08-04T21:00:32.945Z,20.33
2022-08-04T21:03:03.101Z,20.33
2022-08-04T21:05:33.777Z,20.32
2022-08-04T21:08:02.551Z,20.30
2022-08-04T21:10:31.815Z,20.32
2022-08-04T21:13:00.389Z,20.31
2022-08-04T21:15:58.381Z,20.29
2022-08-04T21:18:17.742Z,20.28
2022-08-04T21:20:59.522Z,20.27
2022-08-04T21:23:29.200Z,20.24
2022-08-04T21:26:04.246Z,20.19
2022-08-04T21:28:33.316Z,20.20
2022-08-04T21:31:11.296Z,20.17
2022-08-04T21:33:52.088Z,20.14
2022-08-04T21:36:22.468Z,20.21
2022-08-04T21:38:56.470Z,20.17
2022-08-04T21:41:27.269Z,20.16
2022-08-04T21:43:58.925Z,20.11
2022-08-04T21:46:30.080Z,20.10
2022-08-04T21:48:59.189Z,20.07
2022-08-04T21:52:00.597Z,20.11
2022-08-04T21:54:22.762Z,20.08
2022-08-04T21:56:52.663Z,20.12
2022-08-04T21:59:24.044Z,20.07
2022-08-04T22:02:01.700Z,20.14
2022-08-04T22:04:31.540Z,20.10
2022-08-04T22:07:03.122Z,20.04
2022-08-04T22:09:37.753Z,20.01
2022-08-04T22:12:12.314Z,19.96
2022-08-04T22:14:42.004Z,19.96
2022-08-04T22:17:19.061Z,19.92
2022-08-04T22:19:55.499Z,19.91
2022-08-04T22:22:40.329Z,19.89
2022-08-04T22:28:02.835Z,19.89
2022-08-04T22:30:36.899Z,19.88
2022-08-04T22:33:09.788Z,19.80
2022-08-04T22:35:48.651Z,19.76
2022-08-04T22:38:34.856Z,19.71
2022-08-04T22:41:11.748Z,19.63
2022-08-04T22:43:42.252Z,19.59
2022-08-04T22:46:20.920Z,19.56
2022-08-04T22:48:52.830Z,19.54
2022-08-04T22:51:22.800Z,19.55
2022-08-04T22:53:54.045Z,19.54
2022-08-04T22:56:38.519Z,19.53
2022-08-04T22:59:10.895Z,19.53
2022-08-04T23:01:58.328Z,19.44
2022-08-04T23:04:32.448Z,19.51
2022-08-04T23:07:09.260Z,19.45
2022-08-04T23:09:50.966Z,19.40
2022-08-04T23:12:28.396Z,19.33
2022-08-04T23:14:58.333Z,19.32
2022-08-04T23:17:28.828Z,19.34
2022-08-04T23:20:00.053Z,19.34
2022-08-04T23:22:41.453Z,19.33
2022-08-04T23:25:17.087Z,19.25
2022-08-04T23:27:48.099Z,19.22
2022-08-04T23:30:29.581Z,19.22
2022-08-04T23:32:59.490Z,19.22
2022-08-04T23:35:28.258Z,19.21
2022-08-04T23:37:59.843Z,19.18
2022-08-04T23:40:32.890Z,19.15
2022-08-04T23:43:17.611Z,19.15
2022-08-04T23:45:54.331Z,19.14
2022-08-04T23:48:35.448Z,19.08
2022-08-04T23:51:14.358Z,19.09
2022-08-04T23:54:03.613Z,19.05
2022-08-04T23:56:35.575Z,18.99
2022-08-04T23:59:17.660Z,18.96
